sensor_id;sensor_type;location;lat;lon;timestamp;P1;durP1;ratioP1;P2;durP2;ratioP2
80131;SDS011;69442;51.442;10.564;2024-03-02T00:00:19;21.30;;;11.18;;
80131;SDS011;69442;51.442;10.564;2024-03-02T00:02:47;24.55;;;11.15;;
80131;SDS011;69442;51.442;10.564;2024-03-02T00:05:17;21.33;;;10.88;;
80131;SDS011;69442;51.442;10.564;2024-03-02T00:08:02;25.30;;;11.68;;
80131;SDS011;69442;51.442;10.564;2024-03-02T00:10:37;22.73;;;10.73;;
80131;SDS011;69442;51.442;10.564;2024-03-02T00:13:05;22.40;;;11.23;;
80131;SDS011;69442;51.442;10.564;2024-03-02T00:18:12;29.77;;;13.00;;
80131;SDS011;69442;51.442;10.564;2024-03-02T00:20:39;7.60;;;4.83;;
80131;SDS011;69442;51.442;10.564;2024-03-02T00:23:06;6.55;;;4.45;;
80131;SDS011;69442;51.442;10.564;2024-03-02T00:25:39;28.65;;;15.18;;
80131;SDS011;69442;51.442;10.564;2024-03-02T00:28:10;38.45;;;18.63;;
80131;SDS011;69442;51.442;10.564;2024-03-02T00:31:14;65.95;;;32.10;;
80131;SDS011;69442;51.442;10.564;2024-03-02T00:33:45;26.52;;;13.73;;
80131;SDS011;69442;51.442;10.564;2024-03-02T00:36:12;30.10;;;14.48;;
80131;SDS011;69442;51.442;10.564;2024-03-02T00:38:49;26.85;;;13.27;;
80131;SDS011;69442;51.442;10.564;2024-03-02T00:41:25;29.58;;;12.93;;
80131;SDS011;69442;51.442;10.564;2024-03-02T00:46:26;26.13;;;12.10;;
80131;SDS011;69442;51.442;10.564;2024-03-02T00:48:58;24.02;;;11.15;;
80131;SDS011;69442;51.442;10.564;2024-03-02T00:51:25;25.83;;;11.30;;
80131;SDS011;69442;51.442;10.564;2024-03-02T00:53:52;26.42;;;13.32;;
80131;SDS011;69442;51.442;10.564;2024-03-02T00:56:22;27.35;;;12.02;;
80131;SDS011;69442;51.442;10.564;2024-03-02T00:58:49;25.65;;;12.00;;
80131;SDS011;69442;51.442;10.564;2024-03-02T01:01:15;23.42;;;12.85;;
80131;SDS011;69442;51.442;10.564;2024-03-02T01:03:41;26.83;;;11.27;;
80131;SDS011;69442;51.442;10.564;2024-03-02T01:06:07;27.15;;;12.45;;
80131;SDS011;69442;51.442;10.564;2024-03-02T01:08:34;30.85;;;14.63;;
80131;SDS011;69442;51.442;10.564;2024-03-02T01:11:03;25.95;;;11.98;;
80131;SDS011;69442;51.442;10.564;2024-03-02T01:13:29;23.05;;;12.10;;
80131;SDS011;69442;51.442;10.564;2024-03-02T01:15:55;20.80;;;12.07;;
80131;SDS011;69442;51.442;10.564;2024-03-02T01:18:21;28.05;;;12.70;;
80131;SDS011;69442;51.442;10.564;2024-03-02T01:20:47;26.42;;;12.35;;
80131;SDS011;69442;51.442;10.564;2024-03-02T01:23:12;23.83;;;11.75;;
80131;SDS011;69442;51.442;10.564;2024-03-02T01:25:38;22.33;;;10.82;;
80131;SDS011;69442;51.442;10.564;2024-03-02T01:28:04;27.35;;;11.90;;
80131;SDS011;69442;51.442;10.564;2024-03-02T01:30:30;29.20;;;11.65;;
80131;SDS011;69442;51.442;10.564;2024-03-02T01:32:55;20.10;;;10.88;;
80131;SDS011;69442;51.442;10.564;2024-03-02T01:35:20;24.77;;;11.98;;
80131;SDS011;69442;51.442;10.564;2024-03-02T01:37:46;21.77;;;11.70;;
80131;SDS011;69442;51.442;10.564;2024-03-02T01:40:11;22.15;;;11.30;;
80131;SDS011;69442;51.442;10.564;2024-03-02T01:42:37;24.08;;;11.75;;
80131;SDS011;69442;51.442;10.564;2024-03-02T01:45:07;19.20;;;12.15;;
80131;SDS011;69442;51.442;10.564;2024-03-02T01:47:33;22.85;;;11.65;;
80131;SDS011;69442;51.442;10.564;2024-03-02T01:49:59;21.73;;;10.57;;
80131;SDS011;69442;51.442;10.564;2024-03-02T01:52:24;25.25;;;11.25;;
80131;SDS011;69442;51.442;10.564;2024-03-02T01:54:50;17.20;;;7.53;;
80131;SDS011;69442;51.442;10.564;2024-03-02T01:57:15;28.85;;;12.38;;
80131;SDS011;69442;51.442;10.564;2024-03-02T01:59:41;23.55;;;12.35;;
80131;SDS011;69442;51.442;10.564;2024-03-02T02:02:07;23.92;;;11.73;;
80131;SDS011;69442;51.442;10.564;2024-03-02T02:04:32;24.92;;;11.75;;
80131;SDS011;69442;51.442;10.564;2024-03-02T02:06:58;23.10;;;11.60;;
80131;SDS011;69442;51.442;10.564;2024-03-02T02:09:24;25.95;;;12.15;;
80131;SDS011;69442;51.442;10.564;2024-03-02T02:11:50;28.00;;;12.80;;
80131;SDS011;69442;51.442;10.564;2024-03-02T02:14:16;26.77;;;12.73;;
80131;SDS011;69442;51.442;10.564;2024-03-02T02:16:42;23.83;;;12.25;;
80131;SDS011;69442;51.442;10.564;2024-03-02T02:19:07;23.58;;;11.02;;
80131;SDS011;69442;51.442;10.564;2024-03-02T02:21:33;25.00;;;11.48;;
80131;SDS011;69442;51.442;10.564;2024-03-02T02:23:58;32.00;;;13.80;;
80131;SDS011;69442;51.442;10.564;2024-03-02T02:26:24;27.85;;;13.57;;
80131;SDS011;69442;51.442;10.564;2024-03-02T02:28:49;24.50;;;12.20;;
80131;SDS011;69442;51.442;10.564;2024-03-02T02:31:15;23.17;;;12.48;;
80131;SDS011;69442;51.442;10.564;2024-03-02T02:33:41;27.67;;;12.52;;
80131;SDS011;69442;51.442;10.564;2024-03-02T02:36:07;22.23;;;11.60;;
80131;SDS011;69442;51.442;10.564;2024-03-02T02:38:35;24.10;;;12.23;;
80131;SDS011;69442;51.442;10.564;2024-03-02T02:41:04;27.55;;;13.40;;
80131;SDS011;69442;51.442;10.564;2024-03-02T02:43:29;26.58;;;12.52;;
80131;SDS011;69442;51.442;10.564;2024-03-02T02:45:55;25.95;;;11.88;;
80131;SDS011;69442;51.442;10.564;2024-03-02T02:48:20;24.15;;;11.60;;
80131;SDS011;69442;51.442;10.564;2024-03-02T02:50:45;25.85;;;11.52;;
80131;SDS011;69442;51.442;10.564;2024-03-02T02:53:11;25.95;;;12.13;;
80131;SDS011;69442;51.442;10.564;2024-03-02T02:55:36;23.77;;;11.45;;
80131;SDS011;69442;51.442;10.564;2024-03-02T02:58:05;23.77;;;12.30;;
80131;SDS011;69442;51.442;10.564;2024-03-02T03:00:31;26.02;;;11.88;;
80131;SDS011;69442;51.442;10.564;2024-03-02T03:02:57;22.92;;;11.93;;
80131;SDS011;69442;51.442;10.564;2024-03-02T03:05:22;26.23;;;11.48;;
80131;SDS011;69442;51.442;10.564;2024-03-02T03:07:47;29.95;;;12.82;;
80131;SDS011;69442;51.442;10.564;2024-03-02T03:10:16;25.27;;;12.05;;
80131;SDS011;69442;51.442;10.564;2024-03-02T03:12:42;21.27;;;11.18;;
80131;SDS011;69442;51.442;10.564;2024-03-02T03:15:08;13.80;;;8.15;;
80131;SDS011;69442;51.442;10.564;2024-03-02T03:17:34;30.33;;;13.45;;
80131;SDS011;69442;51.442;10.564;2024-03-02T03:20:00;10.57;;;6.10;;
80131;SDS011;69442;51.442;10.564;2024-03-02T03:22:26;18.25;;;10.25;;
80131;SDS011;69442;51.442;10.564;2024-03-02T03:24:52;29.48;;;13.35;;
80131;SDS011;69442;51.442;10.564;2024-03-02T03:27:17;21.27;;;11.43;;
80131;SDS011;69442;51.442;10.564;2024-03-02T03:29:43;24.33;;;12.02;;
80131;SDS011;69442;51.442;10.564;2024-03-02T03:32:08;24.20;;;12.13;;
80131;SDS011;69442;51.442;10.564;2024-03-02T03:34:34;26.27;;;11.50;;
80131;SDS011;69442;51.442;10.564;2024-03-02T03:37:00;23.27;;;10.90;;
80131;SDS011;69442;51.442;10.564;2024-03-02T03:39:25;24.20;;;12.32;;
80131;SDS011;69442;51.442;10.564;2024-03-02T03:41:50;23.67;;;12.32;;
80131;SDS011;69442;51.442;10.564;2024-03-02T03:44:16;26.10;;;12.15;;
80131;SDS011;69442;51.442;10.564;2024-03-02T03:46:41;23.73;;;11.57;;
80131;SDS011;69442;51.442;10.564;2024-03-02T03:49:07;21.05;;;11.40;;
80131;SDS011;69442;51.442;10.564;2024-03-02T03:51:33;23.00;;;12.23;;
80131;SDS011;69442;51.442;10.564;2024-03-02T03:53:58;19.02;;;9.73;;
80131;SDS011;69442;51.442;10.564;2024-03-02T03:56:24;24.25;;;11.85;;
80131;SDS011;69442;51.442;10.564;2024-03-02T03:58:49;26.40;;;12.50;;
80131;SDS011;69442;51.442;10.564;2024-03-02T04:01:14;27.77;;;12.23;;
80131;SDS011;69442;51.442;10.564;2024-03-02T04:03:40;20.88;;;10.48;;
80131;SDS011;69442;51.442;10.564;2024-03-02T04:06:05;19.05;;;10.15;;
80131;SDS011;69442;51.442;10.564;2024-03-02T04:08:31;22.75;;;12.10;;
80131;SDS011;69442;51.442;10.564;2024-03-02T04:10:56;21.70;;;11.35;;
80131;SDS011;69442;51.442;10.564;2024-03-02T04:13:21;23.50;;;12.93;;
80131;SDS011;69442;51.442;10.564;2024-03-02T04:15:47;26.52;;;12.25;;
80131;SDS011;69442;51.442;10.564;2024-03-02T04:18:12;20.25;;;10.90;;
80131;SDS011;69442;51.442;10.564;2024-03-02T04:20:38;9.50;;;5.22;;
80131;SDS011;69442;51.442;10.564;2024-03-02T04:23:03;27.48;;;12.52;;
80131;SDS011;69442;51.442;10.564;2024-03-02T04:25:28;24.83;;;11.88;;
80131;SDS011;69442;51.442;10.564;2024-03-02T04:27:54;21.17;;;11.20;;
80131;SDS011;69442;51.442;10.564;2024-03-02T04:30:19;22.63;;;11.88;;
80131;SDS011;69442;51.442;10.564;2024-03-02T04:32:45;29.45;;;13.32;;
80131;SDS011;69442;51.442;10.564;2024-03-02T04:35:14;23.40;;;11.98;;
80131;SDS011;69442;51.442;10.564;2024-03-02T04:37:39;26.67;;;11.73;;
80131;SDS011;69442;51.442;10.564;2024-03-02T04:40:05;23.10;;;11.90;;
80131;SDS011;69442;51.442;10.564;2024-03-02T04:42:33;25.25;;;10.82;;
80131;SDS011;69442;51.442;10.564;2024-03-02T04:44:59;24.52;;;12.13;;
80131;SDS011;69442;51.442;10.564;2024-03-02T04:47:24;24.10;;;11.35;;
80131;SDS011;69442;51.442;10.564;2024-03-02T04:49:50;22.52;;;11.73;;
80131;SDS011;69442;51.442;10.564;2024-03-02T04:52:15;22.98;;;11.48;;
80131;SDS011;69442;51.442;10.564;2024-03-02T04:54:41;21.50;;;11.57;;
80131;SDS011;69442;51.442;10.564;2024-03-02T04:57:25;27.35;;;12.65;;
80131;SDS011;69442;51.442;10.564;2024-03-02T04:59:50;26.52;;;13.77;;
80131;SDS011;69442;51.442;10.564;2024-03-02T05:02:16;27.05;;;12.70;;
80131;SDS011;69442;51.442;10.564;2024-03-02T05:04:41;24.83;;;11.55;;
80131;SDS011;69442;51.442;10.564;2024-03-02T05:07:07;22.02;;;10.48;;
80131;SDS011;69442;51.442;10.564;2024-03-02T05:09:32;24.10;;;10.80;;
80131;SDS011;69442;51.442;10.564;2024-03-02T05:11:58;22.17;;;10.25;;
80131;SDS011;69442;51.442;10.564;2024-03-02T05:14:41;21.02;;;9.73;;
80131;SDS011;69442;51.442;10.564;2024-03-02T05:17:07;23.58;;;12.05;;
80131;SDS011;69442;51.442;10.564;2024-03-02T05:19:32;40.03;;;18.85;;
80131;SDS011;69442;51.442;10.564;2024-03-02T05:21:57;42.45;;;20.00;;
80131;SDS011;69442;51.442;10.564;2024-03-02T05:24:23;41.88;;;19.33;;
80131;SDS011;69442;51.442;10.564;2024-03-02T05:26:48;36.22;;;17.00;;
80131;SDS011;69442;51.442;10.564;2024-03-02T05:29:14;29.83;;;14.85;;
80131;SDS011;69442;51.442;10.564;2024-03-02T05:31:39;28.10;;;13.00;;
80131;SDS011;69442;51.442;10.564;2024-03-02T05:34:05;26.85;;;14.07;;
80131;SDS011;69442;51.442;10.564;2024-03-02T05:36:31;30.50;;;15.85;;
80131;SDS011;69442;51.442;10.564;2024-03-02T05:38:56;30.10;;;14.35;;
80131;SDS011;69442;51.442;10.564;2024-03-02T05:41:22;29.20;;;13.68;;
80131;SDS011;69442;51.442;10.564;2024-03-02T05:43:47;28.60;;;13.85;;
80131;SDS011;69442;51.442;10.564;2024-03-02T05:46:13;26.10;;;12.65;;
80131;SDS011;69442;51.442;10.564;2024-03-02T05:48:39;27.60;;;13.35;;
80131;SDS011;69442;51.442;10.564;2024-03-02T05:51:04;27.77;;;13.48;;
80131;SDS011;69442;51.442;10.564;2024-03-02T05:53:30;29.15;;;13.23;;
80131;SDS011;69442;51.442;10.564;2024-03-02T05:55:55;31.65;;;14.30;;
80131;SDS011;69442;51.442;10.564;2024-03-02T05:58:21;28.35;;;13.88;;
80131;SDS011;69442;51.442;10.564;2024-03-02T06:00:59;10.45;;;5.72;;
80131;SDS011;69442;51.442;10.564;2024-03-02T06:03:24;17.45;;;8.15;;
80131;SDS011;69442;51.442;10.564;2024-03-02T06:05:50;20.92;;;10.75;;
80131;SDS011;69442;51.442;10.564;2024-03-02T06:08:16;28.55;;;12.80;;
80131;SDS011;69442;51.442;10.564;2024-03-02T06:10:41;26.83;;;12.45;;
80131;SDS011;69442;51.442;10.564;2024-03-02T06:13:06;30.52;;;13.13;;
80131;SDS011;69442;51.442;10.564;2024-03-02T06:15:32;25.33;;;11.15;;
80131;SDS011;69442;51.442;10.564;2024-03-02T06:17:58;26.77;;;13.27;;
80131;SDS011;69442;51.442;10.564;2024-03-02T06:20:23;28.42;;;12.43;;
80131;SDS011;69442;51.442;10.564;2024-03-02T06:22:48;23.88;;;11.57;;
80131;SDS011;69442;51.442;10.564;2024-03-02T06:25:14;25.23;;;11.75;;
80131;SDS011;69442;51.442;10.564;2024-03-02T06:27:40;26.98;;;11.77;;
80131;SDS011;69442;51.442;10.564;2024-03-02T06:30:05;26.83;;;12.57;;
80131;SDS011;69442;51.442;10.564;2024-03-02T06:32:31;36.83;;;15.80;;
80131;SDS011;69442;51.442;10.564;2024-03-02T06:34:56;32.35;;;13.68;;
80131;SDS011;69442;51.442;10.564;2024-03-02T06:37:21;29.00;;;13.45;;
80131;SDS011;69442;51.442;10.564;2024-03-02T06:39:47;32.40;;;14.40;;
80131;SDS011;69442;51.442;10.564;2024-03-02T06:42:12;29.23;;;14.30;;
80131;SDS011;69442;51.442;10.564;2024-03-02T06:44:38;31.58;;;13.05;;
80131;SDS011;69442;51.442;10.564;2024-03-02T06:47:03;24.48;;;12.48;;
80131;SDS011;69442;51.442;10.564;2024-03-02T06:49:29;29.58;;;13.18;;
80131;SDS011;69442;51.442;10.564;2024-03-02T06:51:55;30.17;;;13.25;;
80131;SDS011;69442;51.442;10.564;2024-03-02T06:54:20;29.17;;;13.77;;
80131;SDS011;69442;51.442;10.564;2024-03-02T06:56:46;31.42;;;13.80;;
80131;SDS011;69442;51.442;10.564;2024-03-02T06:59:11;29.08;;;13.48;;
80131;SDS011;69442;51.442;10.564;2024-03-02T07:01:37;33.17;;;13.93;;
80131;SDS011;69442;51.442;10.564;2024-03-02T07:04:02;30.80;;;13.65;;
80131;SDS011;69442;51.442;10.564;2024-03-02T07:06:31;29.38;;;13.52;;
80131;SDS011;69442;51.442;10.564;2024-03-02T07:08:57;34.60;;;15.98;;
80131;SDS011;69442;51.442;10.564;2024-03-02T07:11:22;40.30;;;18.60;;
80131;SDS011;69442;51.442;10.564;2024-03-02T07:13:47;35.15;;;16.08;;
80131;SDS011;69442;51.442;10.564;2024-03-02T07:16:13;29.73;;;13.68;;
80131;SDS011;69442;51.442;10.564;2024-03-02T07:18:53;30.27;;;14.63;;
80131;SDS011;69442;51.442;10.564;2024-03-02T07:21:20;17.90;;;9.45;;
80131;SDS011;69442;51.442;10.564;2024-03-02T07:23:47;32.80;;;14.80;;
80131;SDS011;69442;51.442;10.564;2024-03-02T07:26:13;27.08;;;13.85;;
80131;SDS011;69442;51.442;10.564;2024-03-02T07:28:40;28.48;;;14.02;;
80131;SDS011;69442;51.442;10.564;2024-03-02T07:31:06;27.08;;;13.48;;
80131;SDS011;69442;51.442;10.564;2024-03-02T07:33:32;31.58;;;14.27;;
80131;SDS011;69442;51.442;10.564;2024-03-02T07:35:57;30.15;;;13.70;;
80131;SDS011;69442;51.442;10.564;2024-03-02T07:38:27;28.02;;;13.07;;
80131;SDS011;69442;51.442;10.564;2024-03-02T07:40:53;28.95;;;13.38;;
80131;SDS011;69442;51.442;10.564;2024-03-02T07:43:19;27.42;;;13.30;;
80131;SDS011;69442;51.442;10.564;2024-03-02T07:45:48;32.35;;;14.48;;
80131;SDS011;69442;51.442;10.564;2024-03-02T07:48:14;25.20;;;10.25;;
80131;SDS011;69442;51.442;10.564;2024-03-02T07:50:40;28.65;;;13.63;;
80131;SDS011;69442;51.442;10.564;2024-03-02T07:53:05;27.10;;;10.85;;
80131;SDS011;69442;51.442;10.564;2024-03-02T07:55:32;29.15;;;12.20;;
80131;SDS011;69442;51.442;10.564;2024-03-02T07:57:58;33.63;;;16.10;;
80131;SDS011;69442;51.442;10.564;2024-03-02T08:00:24;29.42;;;12.65;;
80131;SDS011;69442;51.442;10.564;2024-03-02T08:02:50;29.98;;;13.25;;
80131;SDS011;69442;51.442;10.564;2024-03-02T08:05:17;30.58;;;13.93;;
80131;SDS011;69442;51.442;10.564;2024-03-02T08:07:44;32.72;;;15.35;;
80131;SDS011;69442;51.442;10.564;2024-03-02T08:10:10;30.92;;;16.88;;
80131;SDS011;69442;51.442;10.564;2024-03-02T08:12:35;30.98;;;15.77;;
80131;SDS011;69442;51.442;10.564;2024-03-02T08:15:01;27.77;;;13.15;;
80131;SDS011;69442;51.442;10.564;2024-03-02T08:17:26;32.88;;;15.32;;
80131;SDS011;69442;51.442;10.564;2024-03-02T08:19:52;30.27;;;14.30;;
80131;SDS011;69442;51.442;10.564;2024-03-02T08:22:17;31.20;;;15.55;;
80131;SDS011;69442;51.442;10.564;2024-03-02T08:24:43;31.50;;;15.02;;
80131;SDS011;69442;51.442;10.564;2024-03-02T08:27:08;26.30;;;13.43;;
80131;SDS011;69442;51.442;10.564;2024-03-02T08:29:34;28.10;;;14.50;;
80131;SDS011;69442;51.442;10.564;2024-03-02T08:32:00;30.83;;;14.20;;
80131;SDS011;69442;51.442;10.564;2024-03-02T08:34:25;32.47;;;13.15;;
80131;SDS011;69442;51.442;10.564;2024-03-02T08:36:50;31.65;;;14.85;;
80131;SDS011;69442;51.442;10.564;2024-03-02T08:39:16;19.60;;;10.23;;
80131;SDS011;69442;51.442;10.564;2024-03-02T08:41:44;30.80;;;14.75;;
80131;SDS011;69442;51.442;10.564;2024-03-02T08:44:09;31.48;;;14.80;;
80131;SDS011;69442;51.442;10.564;2024-03-02T08:46:35;24.88;;;12.48;;
80131;SDS011;69442;51.442;10.564;2024-03-02T08:49:01;28.23;;;14.25;;
80131;SDS011;69442;51.442;10.564;2024-03-02T08:51:27;31.85;;;14.45;;
80131;SDS011;69442;51.442;10.564;2024-03-02T08:53:52;28.70;;;13.68;;
80131;SDS011;69442;51.442;10.564;2024-03-02T08:56:17;28.88;;;13.40;;
80131;SDS011;69442;51.442;10.564;2024-03-02T08:58:43;26.58;;;13.35;;
80131;SDS011;69442;51.442;10.564;2024-03-02T09:01:09;28.88;;;14.23;;
80131;SDS011;69442;51.442;10.564;2024-03-02T09:03:36;28.08;;;14.52;;
80131;SDS011;69442;51.442;10.564;2024-03-02T09:06:02;29.98;;;14.43;;
80131;SDS011;69442;51.442;10.564;2024-03-02T09:08:28;26.35;;;13.80;;
80131;SDS011;69442;51.442;10.564;2024-03-02T09:10:53;28.55;;;13.73;;
80131;SDS011;69442;51.442;10.564;2024-03-02T09:13:19;31.75;;;14.95;;
80131;SDS011;69442;51.442;10.564;2024-03-02T09:15:44;29.67;;;13.48;;
80131;SDS011;69442;51.442;10.564;2024-03-02T09:18:10;26.77;;;13.85;;
80131;SDS011;69442;51.442;10.564;2024-03-02T09:20:35;27.08;;;13.77;;
80131;SDS011;69442;51.442;10.564;2024-03-02T09:23:01;25.13;;;12.90;;
80131;SDS011;69442;51.442;10.564;2024-03-02T09:25:26;27.25;;;13.05;;
80131;SDS011;69442;51.442;10.564;2024-03-02T09:27:52;25.27;;;12.55;;
80131;SDS011;69442;51.442;10.564;2024-03-02T09:30:17;26.75;;;12.80;;
80131;SDS011;69442;51.442;10.564;2024-03-02T09:32:43;27.02;;;13.73;;
80131;SDS011;69442;51.442;10.564;2024-03-02T09:35:08;31.73;;;13.85;;
80131;SDS011;69442;51.442;10.564;2024-03-02T09:37:34;28.25;;;12.93;;
80131;SDS011;69442;51.442;10.564;2024-03-02T09:40:00;26.42;;;12.57;;
80131;SDS011;69442;51.442;10.564;2024-03-02T09:42:26;25.33;;;11.68;;
80131;SDS011;69442;51.442;10.564;2024-03-02T09:44:52;27.10;;;13.82;;
80131;SDS011;69442;51.442;10.564;2024-03-02T09:47:18;18.80;;;8.77;;
80131;SDS011;69442;51.442;10.564;2024-03-02T09:49:43;26.25;;;12.98;;
80131;SDS011;69442;51.442;10.564;2024-03-02T09:52:09;25.48;;;13.85;;
80131;SDS011;69442;51.442;10.564;2024-03-02T09:54:35;25.58;;;12.13;;
80131;SDS011;69442;51.442;10.564;2024-03-02T09:57:01;27.35;;;12.43;;
80131;SDS011;69442;51.442;10.564;2024-03-02T09:59:27;22.95;;;10.20;;
80131;SDS011;69442;51.442;10.564;2024-03-02T10:02:00;26.10;;;12.20;;
80131;SDS011;69442;51.442;10.564;2024-03-02T10:04:27;22.17;;;11.18;;
80131;SDS011;69442;51.442;10.564;2024-03-02T10:07:13;22.45;;;11.27;;
80131;SDS011;69442;51.442;10.564;2024-03-02T10:09:42;22.02;;;10.75;;
80131;SDS011;69442;51.442;10.564;2024-03-02T10:12:12;21.10;;;11.15;;
80131;SDS011;69442;51.442;10.564;2024-03-02T10:14:39;21.92;;;10.70;;
80131;SDS011;69442;51.442;10.564;2024-03-02T10:17:06;21.33;;;12.05;;
80131;SDS011;69442;51.442;10.564;2024-03-02T10:19:35;20.05;;;10.52;;
80131;SDS011;69442;51.442;10.564;2024-03-02T10:22:02;19.10;;;9.43;;
80131;SDS011;69442;51.442;10.564;2024-03-02T10:24:34;23.58;;;9.15;;
80131;SDS011;69442;51.442;10.564;2024-03-02T10:27:10;20.98;;;9.00;;
80131;SDS011;69442;51.442;10.564;2024-03-02T10:29:40;19.08;;;10.35;;
80131;SDS011;69442;51.442;10.564;2024-03-02T10:32:09;14.82;;;7.63;;
80131;SDS011;69442;51.442;10.564;2024-03-02T10:34:36;17.80;;;9.75;;
80131;SDS011;69442;51.442;10.564;2024-03-02T10:37:02;17.90;;;9.20;;
80131;SDS011;69442;51.442;10.564;2024-03-02T10:39:28;15.45;;;9.25;;
80131;SDS011;69442;51.442;10.564;2024-03-02T10:41:55;14.85;;;8.75;;
80131;SDS011;69442;51.442;10.564;2024-03-02T10:44:22;6.40;;;3.85;;
80131;SDS011;69442;51.442;10.564;2024-03-02T10:46:48;13.85;;;8.00;;
80131;SDS011;69442;51.442;10.564;2024-03-02T10:49:15;14.38;;;8.50;;
80131;SDS011;69442;51.442;10.564;2024-03-02T10:51:42;9.50;;;4.95;;
80131;SDS011;69442;51.442;10.564;2024-03-02T10:54:07;14.57;;;8.50;;
80131;SDS011;69442;51.442;10.564;2024-03-02T10:56:33;14.65;;;7.28;;
80131;SDS011;69442;51.442;10.564;2024-03-02T11:01:36;13.82;;;6.78;;
80131;SDS011;69442;51.442;10.564;2024-03-02T11:04:04;8.23;;;4.97;;
80131;SDS011;69442;51.442;10.564;2024-03-02T11:06:34;12.95;;;7.03;;
80131;SDS011;69442;51.442;10.564;2024-03-02T11:09:05;14.35;;;7.65;;
80131;SDS011;69442;51.442;10.564;2024-03-02T11:11:37;8.25;;;5.00;;
80131;SDS011;69442;51.442;10.564;2024-03-02T11:14:11;7.53;;;4.43;;
80131;SDS011;69442;51.442;10.564;2024-03-02T11:16:39;12.57;;;6.47;;
80131;SDS011;69442;51.442;10.564;2024-03-02T11:19:06;12.50;;;7.15;;
80131;SDS011;69442;51.442;10.564;2024-03-02T11:21:34;15.98;;;7.13;;
80131;SDS011;69442;51.442;10.564;2024-03-02T11:24:13;10.52;;;6.38;;
80131;SDS011;69442;51.442;10.564;2024-03-02T11:26:46;10.65;;;6.25;;
80131;SDS011;69442;51.442;10.564;2024-03-02T11:29:38;9.02;;;5.07;;
80131;SDS011;69442;51.442;10.564;2024-03-02T11:32:04;11.65;;;5.85;;
80131;SDS011;69442;51.442;10.564;2024-03-02T11:34:31;12.32;;;7.13;;
80131;SDS011;69442;51.442;10.564;2024-03-02T11:36:58;7.47;;;3.92;;
80131;SDS011;69442;51.442;10.564;2024-03-02T11:39:25;13.27;;;7.68;;
80131;SDS011;69442;51.442;10.564;2024-03-02T11:41:52;11.27;;;6.18;;
80131;SDS011;69442;51.442;10.564;2024-03-02T11:44:17;14.00;;;7.47;;
80131;SDS011;69442;51.442;10.564;2024-03-02T11:47:04;14.73;;;7.03;;
80131;SDS011;69442;51.442;10.564;2024-03-02T11:52:15;15.52;;;7.20;;
80131;SDS011;69442;51.442;10.564;2024-03-02T11:54:43;14.80;;;7.00;;
80131;SDS011;69442;51.442;10.564;2024-03-02T11:57:16;10.55;;;5.72;;
80131;SDS011;69442;51.442;10.564;2024-03-02T11:59:47;14.18;;;7.55;;
80131;SDS011;69442;51.442;10.564;2024-03-02T12:02:23;13.27;;;7.60;;
80131;SDS011;69442;51.442;10.564;2024-03-02T12:04:49;13.43;;;6.82;;
80131;SDS011;69442;51.442;10.564;2024-03-02T12:07:19;13.45;;;6.97;;
80131;SDS011;69442;51.442;10.564;2024-03-02T12:09:48;12.68;;;7.70;;
80131;SDS011;69442;51.442;10.564;2024-03-02T12:12:24;11.48;;;7.10;;
80131;SDS011;69442;51.442;10.564;2024-03-02T12:14:50;12.05;;;7.32;;
80131;SDS011;69442;51.442;10.564;2024-03-02T12:17:16;13.57;;;6.88;;
80131;SDS011;69442;51.442;10.564;2024-03-02T12:19:42;12.48;;;7.20;;
80131;SDS011;69442;51.442;10.564;2024-03-02T12:22:07;12.25;;;6.80;;
80131;SDS011;69442;51.442;10.564;2024-03-02T12:24:33;9.70;;;5.43;;
80131;SDS011;69442;51.442;10.564;2024-03-02T12:26:58;11.52;;;7.05;;
80131;SDS011;69442;51.442;10.564;2024-03-02T12:29:24;13.55;;;6.55;;
80131;SDS011;69442;51.442;10.564;2024-03-02T12:31:50;11.98;;;6.75;;
80131;SDS011;69442;51.442;10.564;2024-03-02T12:34:17;12.93;;;7.22;;
80131;SDS011;69442;51.442;10.564;2024-03-02T12:36:44;10.68;;;6.15;;
80131;SDS011;69442;51.442;10.564;2024-03-02T12:39:12;10.82;;;6.30;;
80131;SDS011;69442;51.442;10.564;2024-03-02T12:41:38;10.63;;;6.43;;
80131;SDS011;69442;51.442;10.564;2024-03-02T12:44:04;10.93;;;5.63;;
80131;SDS011;69442;51.442;10.564;2024-03-02T12:46:34;12.38;;;6.43;;
80131;SDS011;69442;51.442;10.564;2024-03-02T12:49:10;11.63;;;6.60;;
80131;SDS011;69442;51.442;10.564;2024-03-02T12:51:40;12.50;;;7.35;;
80131;SDS011;69442;51.442;10.564;2024-03-02T12:54:09;12.60;;;7.15;;
80131;SDS011;69442;51.442;10.564;2024-03-02T12:56:40;12.82;;;7.93;;
80131;SDS011;69442;51.442;10.564;2024-03-02T12:59:10;25.45;;;11.57;;
80131;SDS011;69442;51.442;10.564;2024-03-02T13:01:55;23.05;;;12.82;;
80131;SDS011;69442;51.442;10.564;2024-03-02T13:06:56;14.95;;;8.73;;
80131;SDS011;69442;51.442;10.564;2024-03-02T13:09:22;13.98;;;8.05;;
80131;SDS011;69442;51.442;10.564;2024-03-02T13:11:48;12.40;;;7.47;;
80131;SDS011;69442;51.442;10.564;2024-03-02T13:14:15;13.55;;;7.85;;
80131;SDS011;69442;51.442;10.564;2024-03-02T13:16:42;13.65;;;7.30;;
80131;SDS011;69442;51.442;10.564;2024-03-02T13:19:08;13.18;;;7.95;;
80131;SDS011;69442;51.442;10.564;2024-03-02T13:21:34;13.35;;;8.35;;
80131;SDS011;69442;51.442;10.564;2024-03-02T13:23:59;14.60;;;7.93;;
80131;SDS011;69442;51.442;10.564;2024-03-02T13:26:26;13.00;;;7.75;;
80131;SDS011;69442;51.442;10.564;2024-03-02T13:28:52;17.85;;;11.48;;
80131;SDS011;69442;51.442;10.564;2024-03-02T13:31:18;15.45;;;9.07;;
80131;SDS011;69442;51.442;10.564;2024-03-02T13:33:43;14.82;;;8.70;;
80131;SDS011;69442;51.442;10.564;2024-03-02T13:36:09;14.80;;;9.15;;
80131;SDS011;69442;51.442;10.564;2024-03-02T13:38:34;13.45;;;8.00;;
80131;SDS011;69442;51.442;10.564;2024-03-02T13:41:00;14.70;;;8.32;;
80131;SDS011;69442;51.442;10.564;2024-03-02T13:43:26;15.05;;;9.25;;
80131;SDS011;69442;51.442;10.564;2024-03-02T13:45:52;16.40;;;8.77;;
80131;SDS011;69442;51.442;10.564;2024-03-02T13:48:18;15.95;;;8.70;;
80131;SDS011;69442;51.442;10.564;2024-03-02T13:50:44;14.65;;;7.50;;
80131;SDS011;69442;51.442;10.564;2024-03-02T13:53:10;14.40;;;8.10;;
80131;SDS011;69442;51.442;10.564;2024-03-02T13:55:36;12.85;;;6.88;;
80131;SDS011;69442;51.442;10.564;2024-03-02T13:58:02;13.68;;;7.88;;
80131;SDS011;69442;51.442;10.564;2024-03-02T14:00:28;12.30;;;7.40;;
80131;SDS011;69442;51.442;10.564;2024-03-02T14:02:54;15.07;;;7.13;;
80131;SDS011;69442;51.442;10.564;2024-03-02T14:05:20;12.15;;;6.97;;
80131;SDS011;69442;51.442;10.564;2024-03-02T14:07:45;15.88;;;8.88;;
80131;SDS011;69442;51.442;10.564;2024-03-02T14:10:11;12.35;;;7.82;;
80131;SDS011;69442;51.442;10.564;2024-03-02T14:12:37;12.73;;;8.50;;
80131;SDS011;69442;51.442;10.564;2024-03-02T14:15:02;14.30;;;8.07;;
80131;SDS011;69442;51.442;10.564;2024-03-02T14:17:28;12.07;;;6.90;;
80131;SDS011;69442;51.442;10.564;2024-03-02T14:19:56;11.73;;;7.35;;
80131;SDS011;69442;51.442;10.564;2024-03-02T14:22:23;10.13;;;6.78;;
80131;SDS011;69442;51.442;10.564;2024-03-02T14:24:49;10.95;;;6.80;;